Time;durP1;ratioP1;P1;durP2;ratioP2;P2;SDS_P1;SDS_P2;PMS_P1;PMS_P2;Temp;Humidity;BMP_temperature;BMP_pressure;BME280_temperature;BME280_humidity;BME280_pressure;Samples;Min_cycle;Max_cycle;Signal;HPM_P1;HPM_P2
2023/02/22 00:01:01;;;;;;;20.48;8.77;;;4.20;99.90;;;;;;5032566;28;20088;-75
2023/02/22 00:03:31;;;;;;;26.10;8.13;;;4.20;99.90;;;;;;5032245;28;20025;-76
2023/02/22 00:06:04;;;;;;;20.52;7.82;;;4.10;99.90;;;;;;5031448;28;20538;-75
2023/02/22 00:08:36;;;;;;;17.02;8.07;;;4.00;99.90;;;;;;5032131;28;20056;-75
2023/02/22 00:11:10;;;;;;;26.23;9.80;;;5.10;99.90;;;;;;5031690;28;20105;-76
2023/02/22 00:13:37;;;;;;;19.92;8.07;;;4.30;99.90;;;;;;5031926;28;20040;-75
2023/02/22 00:16:03;;;;;;;24.60;9.35;;;;;;;;;;5031077;28;20026;-75
2023/02/22 00:18:29;;;;;;;12.13;6.65;;;4.60;99.90;;;;;;5031491;28;20735;-75
2023/02/22 00:20:58;;;;;;;14.73;7.60;;;4.50;99.90;;;;;;5031206;28;20040;-76
2023/02/22 00:23:25;;;;;;;29.17;8.73;;;4.70;99.90;;;;;;5031631;28;20391;-76
2023/02/22 00:25:51;;;;;;;17.20;7.70;;;;;;;;;;5031044;28;20021;-76
2023/02/22 00:28:18;;;;;;;13.73;6.88;;;4.50;99.90;;;;;;5031527;28;20044;-76
2023/02/22 00:30:44;;;;;;;18.13;9.30;;;3.70;99.90;;;;;;5031180;28;20083;-75
2023/02/22 00:33:14;;;;;;;21.67;8.93;;;4.20;99.90;;;;;;5031099;28;20040;-75
2023/02/22 00:35:40;;;;;;;19.73;7.95;;;4.10;99.90;;;;;;5030998;28;20100;-75
2023/02/22 00:38:06;;;;;;;31.33;9.35;;;4.30;99.90;;;;;;5031179;28;20013;-76
2023/02/22 00:40:33;;;;;;;14.15;6.63;;;4.20;99.90;;;;;;5030925;28;20060;-76
2023/02/22 00:43:02;;;;;;;15.50;7.78;;;4.30;99.90;;;;;;5030995;28;20029;-75
2023/02/22 00:45:30;;;;;;;12.45;6.90;;;4.10;99.90;;;;;;5042545;28;20040;-75
2023/02/22 00:47:56;;;;;;;;;;;4.30;99.90;;;;;;5045018;28;20025;-75
2023/02/22 00:50:25;;;;;;;15.63;6.53;;;4.80;99.90;;;;;;5040108;28;19912;-76
2023/02/22 00:52:51;;;;;;;23.48;7.82;;;4.10;99.90;;;;;;5043014;28;20037;-76
2023/02/22 00:55:21;;;;;;;15.18;6.63;;;4.20;99.90;;;;;;5031093;28;20040;-75
2023/02/22 00:57:48;;;;;;;20.70;8.18;;;;;;;;;;5032759;28;20034;-76
2023/02/22 01:00:18;;;;;;;18.67;8.38;;;4.10;99.90;;;;;;5041592;28;20068;-75
2023/02/22 01:02:45;;;;;;;20.95;7.18;;;;;;;;;;5033412;28;20030;-75
2023/02/22 01:05:12;;;;;;;16.95;7.70;;;3.90;99.90;;;;;;5050336;28;20028;-75
2023/02/22 01:07:39;;;;;;;13.20;7.68;;;4.20;99.90;;;;;;5033918;28;20025;-75
2023/02/22 01:10:07;;;;;;;22.45;8.63;;;4.10;99.90;;;;;;5030531;28;20065;-76
2023/02/22 01:12:34;;;;;;;19.38;8.40;;;4.40;99.90;;;;;;5030655;28;20026;-76
2023/02/22 01:15:00;;;;;;;20.10;8.77;;;;;;;;;;5030504;28;20033;-76
2023/02/22 01:17:26;;;;;;;18.52;7.80;;;4.20;99.90;;;;;;5030584;28;20032;-76
2023/02/22 01:19:53;;;;;;;14.50;7.80;;;4.40;99.90;;;;;;5051891;28;20034;-76
2023/02/22 01:22:20;;;;;;;12.38;4.85;;;4.40;99.90;;;;;;5030116;28;20033;-75
2023/02/22 01:24:46;;;;;;;11.35;6.28;;;4.50;99.90;;;;;;5040570;28;20024;-76
2023/02/22 01:27:13;;;;;;;10.73;6.75;;;;;;;;;;5032820;28;20036;-75
2023/02/22 01:29:40;;;;;;;11.40;6.72;;;;;;;;;;5039713;28;20128;-75
2023/02/22 01:32:06;;;;;;;19.73;8.90;;;;;;;;;;5033558;28;20145;-75
2023/02/22 01:34:32;;;;;;;16.80;7.95;;;4.10;99.90;;;;;;5049645;28;20118;-75
2023/02/22 01:37:00;;;;;;;16.73;10.07;;;;;;;;;;5049081;28;20219;-76
2023/02/22 01:39:26;;;;;;;25.25;7.95;;;4.30;99.90;;;;;;5049859;28;20048;-75
2023/02/22 01:41:55;;;;;;;22.20;8.82;;;;;;;;;;5035906;28;20029;-75
2023/02/22 01:44:34;;;;;;;20.48;8.68;;;6.70;99.90;;;;;;5048763;28;20029;-76
2023/02/22 01:47:02;;;;;;;19.08;9.30;;;4.30;99.90;;;;;;5042366;28;20406;-75
2023/02/22 01:49:49;;;;;;;25.73;7.80;;;4.80;99.90;;;;;;5042437;28;20533;-75
2023/02/22 01:52:19;;;;;;;12.60;6.60;;;4.20;99.90;;;;;;5019374;28;20014;-76
2023/02/22 01:54:52;;;;;;;22.60;8.65;;;4.50;99.90;;;;;;5042306;28;20400;-75
2023/02/22 01:57:25;;;;;;;34.60;8.27;;;4.40;99.90;;;;;;5029679;28;20029;-75
2023/02/22 01:59:56;;;;;;;13.75;7.05;;;4.70;99.90;;;;;;5047555;28;20053;-75
2023/02/22 02:02:24;;;;;;;24.20;8.68;;;;;;;;;;5035956;28;20694;-76
2023/02/22 02:04:53;;;;;;;10.05;6.07;;;4.60;99.90;;;;;;5047058;28;20029;-76
2023/02/22 02:07:20;;;;;;;19.13;8.25;;;4.80;99.90;;;;;;5047417;28;20603;-75
2023/02/22 02:10:01;;;;;;;16.98;7.53;;;4.50;99.90;;;;;;5023800;28;20029;-76
2023/02/22 02:12:30;;;;;;;20.85;7.68;;;4.50;99.90;;;;;;5045261;28;20060;-76
2023/02/22 02:15:15;;;;;;;20.23;8.05;;;4.40;99.90;;;;;;5038193;28;20020;-76
2023/02/22 02:17:42;;;;;;;17.20;8.23;;;;;;;;;;5034952;28;20029;-76
2023/02/22 02:20:21;;;;;;;20.02;8.05;;;4.70;99.90;;;;;;5047727;28;20553;-76
2023/02/22 02:23:06;;;;;;;17.83;7.90;;;4.40;99.90;;;;;;5028200;28;20109;-76
2023/02/22 02:25:56;;;;;;;19.00;8.10;;;4.40;99.90;;;;;;5029443;28;20087;-75
2023/02/22 02:28:22;;;;;;;16.35;7.38;;;;;;;;;;5029222;28;20112;-75
2023/02/22 02:31:17;;;;;;;19.98;7.57;;;4.10;99.90;;;;;;5029472;28;20108;-76
2023/02/22 02:33:57;;;;;;;12.30;6.13;;;4.30;99.90;;;;;;5029116;28;21631;-76
2023/02/22 02:36:45;;;;;;;13.52;6.75;;;4.30;99.90;;;;;;5028969;28;20040;-76
2023/02/22 02:39:19;;;;;;;18.25;7.88;;;4.20;99.90;;;;;;5017354;28;20070;-75
2023/02/22 02:41:49;;;;;;;22.40;9.32;;;4.10;99.90;;;;;;5029021;28;20108;-76
2023/02/22 02:44:30;;;;;;;16.85;8.30;;;4.20;99.90;;;;;;5029086;28;20026;-76
2023/02/22 02:47:01;;;;;;;18.13;8.02;;;3.70;99.90;;;;;;5028157;28;20030;-75
2023/02/22 02:49:56;;;;;;;13.63;8.20;;;3.90;99.90;;;;;;5028641;28;20037;-76
2023/02/22 02:52:24;;;;;;;15.20;8.80;;;3.80;99.90;;;;;;5028634;28;20069;-75
2023/02/22 02:54:52;;;;;;;16.35;7.90;;;3.70;99.90;;;;;;5028720;28;20025;-75
2023/02/22 02:57:17;;;;;;;;;;;3.80;99.90;;;;;;5029568;28;20459;-75
2023/02/22 02:59:43;;;;;;;16.55;7.90;;;3.70;99.90;;;;;;5026336;28;19945;-76
2023/02/22 03:02:11;;;;;;;20.85;9.43;;;;;;;;;;5028614;28;20061;-75
2023/02/22 03:04:47;;;;;;;16.70;7.68;;;3.80;99.90;;;;;;5024700;28;20079;-76
2023/02/22 03:07:26;;;;;;;21.00;7.97;;;5.20;99.90;;;;;;5060386;28;20029;-76
2023/02/22 03:10:17;;;;;;;20.30;8.07;;;4.10;99.90;;;;;;5028476;28;20030;-75
2023/02/22 03:12:43;;;;;;;17.58;7.20;;;;;;;;;;5016632;28;20029;-76
2023/02/22 03:15:09;;;;;;;18.58;7.90;;;;;;;;;;5028656;28;20056;-75
2023/02/22 03:17:48;;;;;;;16.75;6.90;;;4.20;99.90;;;;;;5032523;28;20621;-75
2023/02/22 03:20:20;;;;;;;15.57;8.00;;;4.10;99.90;;;;;;5032553;28;20042;-76
2023/02/22 03:22:56;;;;;;;19.77;8.23;;;3.80;99.90;;;;;;5032516;28;20035;-76
2023/02/22 03:25:36;;;;;;;15.82;9.77;;;4.00;99.90;;;;;;5032673;28;20032;-75
2023/02/22 03:28:10;;;;;;;19.83;7.28;;;4.10;99.90;;;;;;5032807;28;20041;-75
2023/02/22 03:30:51;;;;;;;12.15;7.43;;;4.20;99.90;;;;;;5045423;28;20040;-75
2023/02/22 03:33:27;;;;;;;18.80;9.00;;;4.10;99.90;;;;;;5038811;28;20033;-76
2023/02/22 03:36:02;;;;;;;14.18;7.00;;;4.00;99.90;;;;;;5032214;28;20041;-76
2023/02/22 03:38:31;;;;;;;24.20;8.80;;;3.80;99.90;;;;;;5032004;28;20044;-76
2023/02/22 03:40:59;;;;;;;18.42;7.75;;;4.30;99.90;;;;;;5032113;28;20095;-76
2023/02/22 03:43:31;;;;;;;20.17;7.20;;;3.90;99.90;;;;;;5032292;28;20021;-75
2023/02/22 03:45:59;;;;;;;21.17;7.13;;;3.80;99.90;;;;;;5031914;28;20036;-75
2023/02/22 03:48:30;;;;;;;;;;;3.90;99.90;;;;;;5032453;28;20029;-75
2023/02/22 03:50:57;;;;;;;20.55;8.35;;;3.90;99.90;;;;;;5032134;28;19996;-75
2023/02/22 03:53:23;;;;;;;15.85;8.40;;;;;;;;;;5032656;28;20053;-76
2023/02/22 03:55:52;;;;;;;15.57;7.40;;;4.10;99.90;;;;;;5031492;28;20037;-75
2023/02/22 03:58:22;;;;;;;18.40;7.75;;;4.00;99.90;;;;;;5031631;28;20033;-75
2023/02/22 04:00:51;;;;;;;20.55;8.90;;;;;;;;;;5044961;28;20076;-75
2023/02/22 04:03:20;;;;;;;17.85;7.45;;;3.90;99.90;;;;;;5044396;28;20068;-75
2023/02/22 04:05:46;;;;;;;15.88;7.85;;;;;;;;;;5031815;28;20021;-75
2023/02/22 04:08:12;;;;;;;15.68;8.23;;;;;;;;;;5032051;28;20053;-76
2023/02/22 04:10:38;;;;;;;21.92;9.05;;;;;;;;;;5031692;28;20064;-75
2023/02/22 04:13:05;;;;;;;22.67;10.25;;;4.80;99.90;;;;;;5044086;28;20147;-76
2023/02/22 04:15:32;;;;;;;23.88;10.43;;;;;;;;;;5050053;28;20029;-76
2023/02/22 04:17:58;;;;;;;20.77;8.48;;;4.10;99.90;;;;;;5050470;28;20025;-75
2023/02/22 04:20:24;;;;;;;25.55;10.68;;;4.10;99.90;;;;;;5047765;28;20534;-76
2023/02/22 04:22:54;;;;;;;16.08;7.97;;;4.00;99.90;;;;;;5048739;28;20355;-75
2023/02/22 04:25:21;;;;;;;20.35;7.82;;;3.90;99.90;;;;;;5031449;28;20060;-75
2023/02/22 04:27:46;;;;;;;11.95;7.78;;;;;;;;;;5030637;28;20113;-76
2023/02/22 04:30:13;;;;;;;15.90;7.65;;;;;;;;;;5043219;28;20492;-76
2023/02/22 04:32:38;;;;;;;14.40;7.40;;;4.20;99.90;;;;;;5030699;28;20029;-75
2023/02/22 04:35:05;;;;;;;25.15;7.97;;;4.00;99.90;;;;;;5029971;28;20075;-76
2023/02/22 04:37:33;;;;;;;31.85;9.77;;;;;;;;;;5043543;28;20032;-76
2023/02/22 04:40:00;;;;;;;21.67;8.85;;;4.10;99.90;;;;;;5050199;28;20028;-76
2023/02/22 04:42:26;;;;;;;27.63;8.57;;;4.00;99.90;;;;;;5048523;28;20036;-76
2023/02/22 04:44:52;;;;;;;24.50;8.70;;;;;;;;;;5036569;28;20017;-75
2023/02/22 04:47:18;;;;;;;17.73;9.02;;;;;;;;;;5035575;28;20501;-75
2023/02/22 04:49:44;;;;;;;19.42;7.53;;;;;;;;;;5037915;28;20021;-75
2023/02/22 04:52:10;;;;;;;24.67;8.65;;;;;;;;;;5035744;28;20029;-75
2023/02/22 04:54:36;;;;;;;20.08;8.38;;;4.10;99.90;;;;;;5031168;28;20037;-76
2023/02/22 04:57:02;;;;;;;17.42;7.90;;;;;;;;;;5043700;28;20507;-76
2023/02/22 04:59:28;;;;;;;16.92;9.00;;;;;;;;;;5050009;28;20040;-76
2023/02/22 05:01:54;;;;;;;11.82;7.03;;;;;;;;;;5048822;28;20025;-76
2023/02/22 05:04:20;;;;;;;13.45;8.23;;;4.10;99.90;;;;;;5042634;28;20029;-76
2023/02/22 05:06:46;;;;;;;17.65;8.00;;;3.90;99.90;;;;;;5043065;28;20108;-75
2023/02/22 05:09:13;;;;;;;20.13;8.35;;;;;;;;;;5030670;28;20107;-76
2023/02/22 05:11:38;;;;;;;16.90;8.95;;;4.00;99.90;;;;;;5030739;28;20021;-76
2023/02/22 05:14:04;;;;;;;12.35;7.18;;;;;;;;;;5030680;28;20060;-76
2023/02/22 05:16:30;;;;;;;17.70;8.63;;;;;;;;;;5029877;28;20755;-75
2023/02/22 05:18:56;;;;;;;17.38;8.32;;;;;;;;;;5062451;28;20502;-76
2023/02/22 05:21:22;;;;;;;19.10;8.73;;;;;;;;;;5043061;28;20053;-76
2023/02/22 05:23:48;;;;;;;29.80;8.63;;;;;;;;;;5030491;28;20025;-76
2023/02/22 05:26:14;;;;;;;31.95;11.30;;;4.00;99.90;;;;;;5029552;28;20426;-74
2023/02/22 05:28:39;;;;;;;22.02;9.23;;;3.70;99.90;;;;;;5028867;28;20033;-74
2023/02/22 05:31:06;;;;;;;15.82;9.60;;;;;;;;;;5029741;28;20021;-76
2023/02/22 05:33:31;;;;;;;13.52;8.57;;;4.00;99.90;;;;;;5039099;28;20025;-74
2023/02/22 05:35:57;;;;;;;16.10;8.40;;;3.80;99.90;;;;;;5036015;28;20040;-76
2023/02/22 05:38:23;;;;;;;20.67;10.70;;;;;;;;;;5017402;28;20025;-76
2023/02/22 05:40:49;;;;;;;16.50;8.07;;;3.80;99.90;;;;;;5029101;28;20033;-76
2023/02/22 05:43:15;;;;;;;27.77;8.77;;;4.10;99.90;;;;;;5036110;28;20392;-76
2023/02/22 05:45:41;;;;;;;18.85;8.57;;;;;;;;;;5035743;28;20026;-76
2023/02/22 05:48:07;;;;;;;24.30;7.28;;;;;;;;;;5040850;28;20022;-77
2023/02/22 05:50:33;;;;;;;14.73;7.22;;;4.20;99.90;;;;;;5029617;28;20083;-73
2023/02/22 05:53:00;;;;;;;15.57;6.85;;;4.20;99.90;;;;;;5029896;28;20075;-75
2023/02/22 05:55:26;;;;;;;13.10;7.18;;;4.40;99.90;;;;;;5040531;28;20509;-76
2023/02/22 05:57:52;;;;;;;14.52;8.30;;;4.60;99.90;;;;;;5029589;28;20029;-76
2023/02/22 06:00:22;;;;;;;11.60;7.35;;;5.20;99.90;;;;;;5029078;28;20725;-76
2023/02/22 06:03:03;;;;;;;15.63;7.82;;;4.50;99.90;;;;;;5028268;28;20773;-75
2023/02/22 06:05:30;;;;;;;11.35;6.13;;;4.60;99.90;;;;;;5029239;28;20528;-76
2023/02/22 06:07:57;;;;;;;14.52;7.90;;;4.50;99.90;;;;;;5029572;28;20100;-75
2023/02/22 06:10:23;;;;;;;18.80;6.65;;;;;;;;;;5046226;28;20029;-76
2023/02/22 06:12:49;;;;;;;17.33;7.07;;;4.50;99.90;;;;;;5034815;28;20112;-75
2023/02/22 06:15:17;;;;;;;12.53;7.33;;;4.60;99.90;;;;;;5043530;28;20026;-76
2023/02/22 06:17:43;;;;;;;19.45;7.82;;;;;;;;;;5041081;28;20640;-75
2023/02/22 06:20:11;;;;;;;19.33;8.17;;;4.40;99.90;;;;;;5028438;28;20034;-75
2023/02/22 06:22:37;;;;;;;13.27;7.60;;;;;;;;;;5042809;28;20048;-76
2023/02/22 06:25:03;;;;;;;14.88;6.55;;;;;;;;;;5038919;28;20493;-76
2023/02/22 06:27:33;;;;;;;12.23;7.03;;;4.70;99.90;;;;;;5032530;28;20529;-75
2023/02/22 06:29:59;;;;;;;16.75;6.90;;;4.80;99.90;;;;;;5038458;28;20159;-75
2023/02/22 06:32:25;;;;;;;13.73;7.32;;;;;;;;;;5036566;28;20108;-76
2023/02/22 06:34:51;;;;;;;19.25;9.77;;;;;;;;;;5037990;28;20045;-78
2023/02/22 06:37:17;;;;;;;23.48;8.63;;;;;;;;;;5035506;28;20067;-78
2023/02/22 06:39:43;;;;;;;19.08;10.25;;;;;;;;;;5040732;28;20049;-75
2023/02/22 06:42:09;;;;;;;18.23;8.77;;;;;;;;;;5031383;28;20028;-75
2023/02/22 06:44:35;;;;;;;15.55;9.35;;;4.80;99.90;;;;;;5036181;28;20113;-76
2023/02/22 06:47:01;;;;;;;18.27;10.18;;;;;;;;;;5037427;28;20500;-75
2023/02/22 06:49:27;;;;;;;20.40;9.27;;;4.90;99.90;;;;;;5030776;28;20062;-76
2023/02/22 06:51:53;;;;;;;26.92;11.20;;;4.70;99.90;;;;;;5037769;28;20033;-76
2023/02/22 06:54:21;;;;;;;27.80;10.95;;;4.90;99.90;;;;;;5027373;28;20375;-75
2023/02/22 06:56:47;;;;;;;17.52;9.75;;;;;;;;;;5027278;28;20026;-75
2023/02/22 06:59:13;;;;;;;20.20;10.98;;;;;;;;;;5036122;28;20556;-75
2023/02/22 07:01:40;;;;;;;23.75;11.13;;;5.30;99.90;;;;;;5034999;28;20499;-74
2023/02/22 07:04:06;;;;;;;22.33;9.25;;;5.50;99.90;;;;;;5036032;28;20087;-75
2023/02/22 07:06:32;;;;;;;16.63;10.60;;;;;;;;;;5034138;28;20037;-75
2023/02/22 07:08:58;;;;;;;22.65;12.40;;;;;;;;;;5028595;28;20026;-75
2023/02/22 07:11:24;;;;;;;19.33;10.00;;;;;;;;;;5027671;28;20556;-77
2023/02/22 07:13:49;;;;;;;27.52;12.65;;;5.40;99.90;;;;;;5032547;28;20036;-75
2023/02/22 07:16:15;;;;;;;31.10;16.40;;;;;;;;;;5035076;28;20109;-74
2023/02/22 07:18:41;;;;;;;32.95;13.40;;;;;;;;;;5035913;28;20554;-75
2023/02/22 07:21:07;;;;;;;29.00;10.82;;;;;;;;;;5047003;28;20051;-74
2023/02/22 07:23:33;;;;;;;17.45;11.10;;;;;;;;;;5060933;28;20547;-74
2023/02/22 07:26:00;;;;;;;17.65;9.20;;;5.70;99.90;;;;;;5055063;28;20482;-76
2023/02/22 07:28:26;;;;;;;25.35;9.48;;;5.90;99.90;;;;;;5066336;28;20021;-75
2023/02/22 07:30:51;;;;;;;19.80;12.27;;;5.80;99.90;;;;;;5067230;28;20108;-75
2023/02/22 07:33:17;;;;;;;24.13;11.80;;;;;;;;;;5050790;28;20819;-76
2023/02/22 07:35:48;;;;;;;29.48;13.63;;;6.10;99.90;;;;;;5056987;28;20025;-74
2023/02/22 07:38:15;;;;;;;22.42;10.38;;;6.10;99.90;;;;;;5057201;28;20451;-75
2023/02/22 07:40:41;;;;;;;27.50;11.68;;;6.20;99.90;;;;;;5065365;28;20041;-73
2023/02/22 07:43:16;;;;;;;24.33;10.88;;;6.00;99.90;;;;;;5059072;28;20029;-73
2023/02/22 07:45:42;;;;;;;20.77;10.60;;;;;;;;;;5062302;28;20374;-72
2023/02/22 07:48:08;;;;;;;27.25;9.23;;;;;;;;;;5051254;28;20021;-71
2023/02/22 07:50:34;;;;;;;24.48;13.55;;;6.20;99.90;;;;;;5062295;28;20071;-72
2023/02/22 07:53:03;;;;;;;31.67;12.13;;;6.30;99.90;;;;;;5059507;28;20048;-72
2023/02/22 07:55:30;;;;;;;28.70;14.02;;;6.20;99.90;;;;;;5061810;28;20071;-71
2023/02/22 07:57:58;;;;;;;26.73;12.18;;;6.30;99.90;;;;;;5061230;28;20017;-72
2023/02/22 08:00:31;;;;;;;26.50;11.88;;;6.30;99.90;;;;;;5061175;28;20079;-72
2023/02/22 08:02:58;;;;;;;19.77;10.88;;;6.30;99.90;;;;;;5053170;28;20048;-75
2023/02/22 08:05:25;;;;;;;;;;;6.40;99.90;;;;;;5064463;28;20036;-76
2023/02/22 08:07:51;;;;;;;25.70;11.30;;;;;;;;;;5060777;28;19919;-75
2023/02/22 08:10:19;;;;;;;19.10;10.80;;;6.40;99.90;;;;;;5060692;28;20040;-75
2023/02/22 08:12:45;;;;;;;27.65;12.35;;;;;;;;;;5067996;28;20036;-77
2023/02/22 08:15:19;;;;;;;30.30;12.25;;;;;;;;;;5064724;28;20398;-74
2023/02/22 08:17:45;;;;;;;26.10;12.80;;;;;;;;;;5067941;28;20501;-77
2023/02/22 08:20:10;;;;;;;22.40;13.52;;;6.80;99.90;;;;;;5066043;28;20033;-78
2023/02/22 08:22:36;;;;;;;29.02;14.32;;;;;;;;;;5060230;28;20024;-76
2023/02/22 08:25:03;;;;;;;28.65;13.35;;;;;;;;;;5056689;28;20037;-76
2023/02/22 08:27:29;;;;;;;37.90;11.77;;;7.20;99.90;;;;;;5054759;28;20078;-73
2023/02/22 08:29:56;;;;;;;32.92;13.02;;;7.40;99.90;;;;;;5054577;28;20083;-77
2023/02/22 08:32:22;;;;;;;26.25;11.82;;;7.30;99.90;;;;;;5056991;28;20025;-76
2023/02/22 08:34:48;;;;;;;23.10;12.32;;;7.60;99.90;;;;;;5064383;28;20029;-79
2023/02/22 08:37:16;;;;;;;27.00;13.35;;;7.80;99.90;;;;;;5065888;28;20053;-78
2023/02/22 08:39:42;;;;;;;23.30;10.65;;;7.80;99.70;;;;;;5064811;28;20033;-79
2023/02/22 08:42:09;;;;;;;23.85;12.18;;;;;;;;;;5067786;28;20123;-79
2023/02/22 08:44:36;;;;;;;25.13;9.95;;;7.70;99.50;;;;;;5065058;28;20452;-79
2023/02/22 08:47:02;;;;;;;24.23;11.35;;;8.20;99.90;;;;;;5066240;28;20493;-79
2023/02/22 08:49:28;;;;;;;26.50;12.15;;;;;;;;;;5066643;28;20029;-79
2023/02/22 08:51:54;;;;;;;27.98;11.60;;;;;;;;;;5062214;28;20165;-79
2023/02/22 08:54:21;;;;;;;27.30;13.85;;;;;;;;;;5062866;28;20028;-79
2023/02/22 08:56:47;;;;;;;25.00;13.00;;;;;;;;;;5049069;28;20045;-79
2023/02/22 08:59:13;;;;;;;28.92;11.82;;;;;;;;;;5054836;28;20037;-79
2023/02/22 09:01:39;;;;;;;21.65;11.75;;;;;;;;;;5055346;28;20556;-75
2023/02/22 09:04:05;;;;;;;22.85;11.93;;;7.90;99.90;;;;;;5065948;28;20085;-73
2023/02/22 09:06:31;;;;;;;35.72;14.57;;;;;;;;;;5062749;28;20028;-77
2023/02/22 09:08:57;;;;;;;26.50;11.43;;;;;;;;;;5056068;28;20027;-79
2023/02/22 09:11:23;;;;;;;29.30;13.45;;;;;;;;;;5069602;28;20032;-79
2023/02/22 09:13:49;;;;;;;25.20;11.35;;;;;;;;;;5068420;28;20575;-72
2023/02/22 09:16:15;;;;;;;22.17;11.18;;;8.30;99.90;;;;;;5069362;28;20103;-73
2023/02/22 09:18:40;;;;;;;18.95;11.18;;;8.30;99.90;;;;;;5068773;28;20048;-75
2023/02/22 09:21:06;;;;;;;26.00;13.43;;;;;;;;;;5068605;28;20456;-76
2023/02/22 09:23:33;;;;;;;22.83;10.43;;;;;;;;;;5069099;28;20035;-72
2023/02/22 09:25:59;;;;;;;34.80;11.60;;;;;;;;;;5057423;28;20037;-78
2023/02/22 09:28:26;;;;;;;21.88;11.82;;;8.80;99.90;;;;;;5048834;28;20043;-77
2023/02/22 09:30:52;;;;;;;24.83;10.43;;;;;;;;;;5051027;28;20040;-77
2023/02/22 09:33:20;;;;;;;34.45;12.73;;;8.80;99.90;;;;;;5056535;28;20263;-77
2023/02/22 09:35:48;;;;;;;31.85;13.27;;;8.90;99.90;;;;;;5059587;28;20028;-76
2023/02/22 09:38:16;;;;;;;33.83;13.18;;;8.90;99.90;;;;;;5066119;28;20037;-73
2023/02/22 09:40:48;;;;;;;22.88;13.85;;;9.00;99.90;;;;;;5068818;28;20062;-73
2023/02/22 09:43:32;;;;;;;26.35;13.43;;;9.20;99.90;;;;;;5060430;28;20024;-75
2023/02/22 09:46:06;;;;;;;37.22;15.57;;;9.30;99.90;;;;;;5050836;28;20025;-76
2023/02/22 09:48:38;;;;;;;30.90;15.07;;;9.30;99.90;;;;;;5057114;28;20451;-78
2023/02/22 09:51:14;;;;;;;33.63;15.73;;;9.30;99.90;;;;;;5054531;28;20107;-76
2023/02/22 09:53:45;;;;;;;28.38;14.98;;;9.50;99.90;;;;;;5053775;28;20073;-75
2023/02/22 09:56:14;;;;;;;25.23;11.45;;;9.40;99.90;;;;;;5054278;28;20017;-78
2023/02/22 09:58:44;;;;;;;31.20;14.68;;;9.40;99.90;;;;;;5053691;28;20056;-78
2023/02/22 10:01:43;;;;;;;28.42;12.70;;;9.40;99.90;;;;;;5049490;28;20037;-75
2023/02/22 10:04:23;;;;;;;23.88;12.82;;;9.20;99.90;;;;;;5046184;28;20023;-75
2023/02/22 10:07:19;;;;;;;25.10;12.32;;;9.10;99.90;;;;;;5047970;28;20035;-74
2023/02/22 10:09:47;;;;;;;31.13;13.35;;;9.10;99.90;;;;;;5060998;28;20047;-81
2023/02/22 10:12:13;;;;;;;;;;;9.10;99.90;;;;;;5063003;28;20025;-81
2023/02/22 10:15:05;;;;;;;28.80;13.10;;;8.90;99.90;;;;;;5067225;28;19908;-73
2023/02/22 10:17:45;;;;;;;19.73;13.07;;;9.00;99.90;;;;;;5054694;28;20033;-79
2023/02/22 10:20:12;;;;;;;28.70;14.68;;;;;;;;;;5059046;28;20490;-78
2023/02/22 10:22:55;;;;;;;35.42;15.40;;;9.10;99.90;;;;;;5067437;28;20032;-78
2023/02/22 10:25:25;;;;;;;32.97;15.75;;;9.00;99.90;;;;;;5063382;28;20501;-78
2023/02/22 10:28:08;;;;;;;33.35;12.95;;;9.10;99.90;;;;;;5062148;28;20056;-76
2023/02/22 10:31:00;;;;;;;29.60;14.88;;;13.20;99.90;;;;;;5061200;28;20032;-77
2023/02/22 10:33:28;;;;;;;24.10;12.05;;;8.90;99.90;;;;;;5051902;28;20065;-82
2023/02/22 10:35:54;;;;;;;27.80;12.10;;;8.80;99.90;;;;;;5066582;28;20017;-77
2023/02/22 10:38:24;;;;;;;28.48;14.20;;;8.80;99.90;;;;;;5064161;28;20034;-76
2023/02/22 10:41:04;;;;;;;29.85;13.52;;;8.90;99.90;;;;;;5064487;28;20488;-77
2023/02/22 10:43:31;;;;;;;29.52;14.13;;;;;;;;;;5066100;28;20036;-77
2023/02/22 10:46:01;;;;;;;19.95;9.93;;;9.00;99.90;;;;;;5063003;28;20025;-72
2023/02/22 10:48:30;;;;;;;19.25;10.70;;;9.00;99.90;;;;;;5058059;28;20129;-76
2023/02/22 10:51:00;;;;;;;18.15;9.45;;;9.20;99.90;;;;;;5049142;28;20020;-76
2023/02/22 10:53:27;;;;;;;20.45;10.98;;;;;;;;;;5046914;28;20029;-76
2023/02/22 10:56:17;;;;;;;35.50;12.25;;;9.50;99.90;;;;;;5050294;28;20031;-75
2023/02/22 10:59:07;;;;;;;26.40;11.90;;;9.60;99.90;;;;;;5052465;28;20420;-77
2023/02/22 11:01:36;;;;;;;23.80;11.75;;;10.00;99.90;;;;;;5062236;28;20102;-75
2023/02/22 11:04:18;;;;;;;29.02;12.40;;;9.50;99.90;;;;;;5052341;28;20164;-76
2023/02/22 11:06:47;;;;;;;27.75;12.75;;;10.00;99.90;;;;;;5048789;28;20122;-76
2023/02/22 11:09:14;;;;;;;28.92;12.48;;;9.90;99.90;;;;;;5054952;28;20024;-76
2023/02/22 11:11:42;;;;;;;37.92;14.60;;;10.20;99.90;;;;;;5066011;28;20016;-76
2023/02/22 11:14:09;;;;;;;40.22;17.02;;;;;;;;;;5067011;28;20032;-76
2023/02/22 11:16:56;;;;;;;27.90;15.13;;;10.60;99.90;;;;;;5066199;28;20024;-76
2023/02/22 11:19:30;;;;;;;24.73;13.87;;;10.90;99.90;;;;;;5067203;28;20262;-75
2023/02/22 11:22:08;;;;;;;28.45;12.50;;;11.00;99.90;;;;;;5048774;28;20116;-73
2023/02/22 11:24:52;;;;;;;18.35;11.68;;;11.20;99.90;;;;;;5045838;28;20502;-77
2023/02/22 11:27:42;;;;;;;21.58;11.05;;;11.70;99.90;;;;;;5064172;28;20024;-77
2023/02/22 11:30:08;;;;;;;17.70;9.52;;;;;;;;;;5045997;28;20118;-78
2023/02/22 11:32:35;;;;;;;21.77;11.05;;;;;;;;;;5056704;28;20318;-77
2023/02/22 11:35:34;;;;;;;19.30;11.00;;;12.00;99.90;;;;;;5062510;28;20033;-77
2023/02/22 11:38:17;;;;;;;16.45;10.90;;;11.90;99.90;;;;;;5068249;28;20024;-75
2023/02/22 11:40:44;;;;;;;24.25;10.77;;;11.90;99.70;;;;;;5062373;28;20041;-74
2023/02/22 11:43:18;;;;;;;21.17;10.10;;;11.60;99.90;;;;;;5063614;28;20104;-79
2023/02/22 11:46:16;;;;;;;17.40;9.95;;;11.90;99.90;;;;;;5065566;28;20143;-79
2023/02/22 11:49:00;;;;;;;18.75;8.18;;;11.70;99.90;;;;;;5063144;28;20035;-76
2023/02/22 11:51:56;;;;;;;18.42;8.90;;;11.50;99.90;;;;;;5068162;28;20021;-76
2023/02/22 11:54:31;;;;;;;21.63;9.75;;;11.30;99.90;;;;;;5066654;28;20105;-73
2023/02/22 11:57:06;;;;;;;18.50;9.35;;;11.30;99.90;;;;;;5060572;28;20493;-75
2023/02/22 11:59:46;;;;;;;15.07;8.45;;;11.10;99.90;;;;;;5061869;28;20056;-74
2023/02/22 12:02:27;;;;;;;19.52;10.60;;;11.10;99.90;;;;;;5065541;28;20090;-77
2023/02/22 12:05:01;;;;;;;19.70;10.30;;;11.00;99.90;;;;;;5050868;28;20040;-77
2023/02/22 12:07:47;;;;;;;17.23;11.00;;;11.40;99.90;;;;;;5059733;28;20033;-75
2023/02/22 12:10:23;;;;;;;17.65;10.93;;;10.90;99.90;;;;;;5060709;28;20021;-74
2023/02/22 12:13:26;;;;;;;20.90;10.93;;;11.20;99.90;;;;;;5057334;28;20055;-74
2023/02/22 12:15:55;;;;;;;21.00;9.73;;;;;;;;;;5060911;28;20375;-77
2023/02/22 12:18:45;;;;;;;25.77;10.60;;;11.30;99.90;;;;;;5062557;28;20056;-77
2023/02/22 12:21:15;;;;;;;15.90;8.15;;;11.60;99.90;;;;;;5065300;28;20029;-77
2023/02/22 12:23:53;;;;;;;19.60;9.90;;;12.00;99.90;;;;;;5068528;28;20039;-77
2023/02/22 12:26:27;;;;;;;19.73;10.82;;;13.00;99.90;;;;;;5065908;28;20038;-77
2023/02/22 12:29:11;;;;;;;18.95;9.77;;;13.60;98.60;;;;;;5059681;28;20071;-78
2023/02/22 12:32:18;;;;;;;17.92;10.40;;;14.30;96.90;;;;;;5050378;28;20033;-78
2023/02/22 12:34:59;;;;;;;24.90;10.52;;;14.80;95.70;;;;;;5020340;28;20168;-74
2023/02/22 12:37:35;;;;;;;19.05;10.77;;;15.30;99.90;;;;;;5018968;28;20068;-74
2023/02/22 12:40:07;;;;;;;23.58;9.68;;;15.60;93.10;;;;;;5016938;28;20061;-73
2023/02/22 12:42:46;;;;;;;19.73;9.82;;;16.00;91.70;;;;;;5016678;28;20037;-77
2023/02/22 12:45:28;;;;;;;21.67;9.80;;;16.40;90.90;;;;;;5040539;28;20063;-77
2023/02/22 12:48:11;;;;;;;15.85;9.25;;;16.40;91.80;;;;;;5013150;28;20418;-76
2023/02/22 12:50:37;;;;;;;16.58;9.35;;;;;;;;;;5021915;28;20579;-77
2023/02/22 12:53:18;;;;;;;16.23;9.30;;;16.60;87.00;;;;;;5008236;28;20109;-77
2023/02/22 12:55:51;;;;;;;21.70;8.57;;;16.80;87.30;;;;;;5010104;28;20040;-77
2023/02/22 12:58:38;;;;;;;12.80;8.40;;;17.10;91.00;;;;;;5024172;28;20057;-76
2023/02/22 13:01:16;;;;;;;16.60;9.23;;;16.90;85.60;;;;;;5019245;28;20045;-76
2023/02/22 13:03:43;;;;;;;12.48;6.55;;;16.90;85.20;;;;;;5018720;28;20037;-77
2023/02/22 13:06:30;;;;;;;15.50;8.20;;;16.60;85.20;;;;;;5056048;28;20052;-77
2023/02/22 13:09:04;;;;;;;21.50;6.68;;;16.30;95.80;;;;;;5049599;28;20029;-75
2023/02/22 13:11:30;;;;;;;15.90;7.70;;;;;;;;;;5049224;28;20027;-78
2023/02/22 13:14:31;;;;;;;12.35;7.38;;;15.40;89.60;;;;;;5052781;28;20116;-77
2023/02/22 13:17:19;;;;;;;12.50;6.80;;;15.30;93.10;;;;;;5046358;28;20136;-77
2023/02/22 13:19:48;;;;;;;12.35;5.75;;;;;;;;;;5048901;28;20104;-78
2023/02/22 13:22:48;;;;;;;10.82;5.68;;;15.70;88.50;;;;;;5051021;28;20029;-76
2023/02/22 13:25:39;;;;;;;11.68;6.38;;;16.20;91.50;;;;;;5054019;28;20029;-76
2023/02/22 13:28:14;;;;;;;10.20;5.70;;;16.60;86.50;;;;;;5062159;28;20112;-76
2023/02/22 13:31:10;;;;;;;16.40;6.25;;;16.80;80.00;;;;;;5068615;28;20051;-73